createdAt,value
2023-04-03T00:00:14.258Z,8.84
2023-04-03T00:02:47.705Z,8.88
2023-04-03T00:05:21.434Z,8.91
2023-04-03T00:07:55.094Z,8.93
2023-04-03T00:10:28.327Z,8.91
2023-04-03T00:13:04.226Z,8.90
2023-04-03T00:15:38.833Z,8.91
2023-04-03T00:18:12.463Z,8.92
2023-04-03T00:20:46.481Z,8.93
2023-04-03T00:23:19.841Z,8.96
2023-04-03T00:25:54.671Z,9.01
2023-04-03T00:28:28.031Z,9.03
2023-04-03T00:31:01.375Z,9.03
2023-04-03T00:33:35.026Z,9.04
2023-04-03T00:36:15.704Z,9.05
2023-04-03T00:38:49.102Z,9.07
2023-04-03T00:41:22.452Z,9.06
2023-04-03T00:43:56.495Z,9.05
2023-04-03T00:46:30.534Z,9.02
2023-04-03T00:49:04.122Z,9.04
2023-04-03T00:51:37.988Z,9.09
2023-04-03T00:54:12.187Z,9.12
2023-04-03T00:56:45.753Z,9.14
2023-04-03T00:59:23.271Z,9.16
2023-04-03T01:02:00.553Z,9.21
2023-04-03T01:04:37.178Z,9.22
2023-04-03T01:07:12.950Z,9.22
2023-04-03T01:09:47.414Z,9.24
2023-04-03T01:12:22.761Z,9.26
2023-04-03T01:14:57.865Z,9.31
2023-04-03T01:17:34.501Z,9.34
2023-04-03T01:20:28.972Z,9.35
2023-04-03T01:23:07.619Z,9.36
2023-04-03T01:25:43.723Z,9.33
2023-04-03T01:28:19.700Z,9.27
2023-04-03T01:30:56.821Z,9.18
2023-04-03T01:33:30.812Z,9.03
2023-04-03T01:36:04.559Z,8.83
2023-04-03T01:38:38.679Z,8.68
2023-04-03T01:41:12.425Z,8.57
2023-04-03T01:43:46.630Z,8.49
2023-04-03T01:46:20.883Z,8.46
2023-04-03T01:48:54.422Z,8.47
2023-04-03T01:51:27.644Z,8.42
2023-04-03T01:54:00.978Z,8.39
2023-04-03T01:56:34.160Z,8.37
2023-04-03T01:59:07.412Z,8.35
2023-04-03T02:01:41.180Z,8.33
2023-04-03T02:04:15.202Z,8.27
2023-04-03T02:06:48.457Z,8.25
2023-04-03T02:09:22.074Z,8.22
2023-04-03T02:11:56.027Z,8.17
2023-04-03T02:14:29.967Z,8.15
2023-04-03T02:17:07.487Z,8.19
2023-04-03T02:19:41.187Z,8.20
2023-04-03T02:22:14.368Z,8.23
2023-04-03T02:24:48.068Z,8.23
2023-04-03T02:27:22.441Z,8.24
2023-04-03T02:29:56.537Z,8.26
2023-04-03T02:32:29.860Z,8.25
2023-04-03T02:35:03.695Z,8.26
2023-04-03T02:37:37.473Z,8.26
2023-04-03T02:40:13.397Z,8.35
2023-04-03T02:42:47.056Z,8.43
2023-04-03T02:45:20.324Z,8.49
2023-04-03T02:47:54.040Z,8.54
2023-04-03T02:50:29.599Z,8.57
2023-04-03T02:53:03.575Z,8.63
2023-04-03T02:55:37.329Z,8.64
2023-04-03T02:58:10.816Z,8.62
2023-04-03T03:00:45.340Z,8.60
2023-04-03T03:03:19.137Z,8.63
2023-04-03T03:05:52.334Z,8.67
2023-04-03T03:08:25.690Z,8.68
2023-04-03T03:10:58.796Z,8.68
2023-04-03T03:13:32.938Z,8.68
2023-04-03T03:16:07.157Z,8.68
2023-04-03T03:18:40.900Z,8.68
2023-04-03T03:21:14.197Z,8.70
2023-04-03T03:23:47.768Z,8.71
2023-04-03T03:26:21.321Z,8.72
2023-04-03T03:28:54.414Z,8.71
2023-04-03T03:31:28.279Z,8.71
2023-04-03T03:34:01.689Z,8.73
2023-04-03T03:36:35.748Z,8.74
2023-04-03T03:39:09.795Z,8.77
2023-04-03T03:41:43.076Z,8.78
2023-04-03T03:44:16.679Z,8.78
2023-04-03T03:46:50.306Z,8.77
2023-04-03T03:49:23.468Z,8.76
2023-04-03T03:51:56.763Z,8.65
2023-04-03T03:54:30.499Z,8.44
2023-04-03T03:57:04.040Z,8.26
2023-04-03T03:59:37.746Z,8.16
2023-04-03T04:02:11.784Z,8.11
2023-04-03T04:04:45.259Z,8.08
2023-04-03T04:07:19.208Z,8.06
2023-04-03T04:09:52.997Z,8.07
2023-04-03T04:12:26.639Z,8.06
2023-04-03T04:15:00.465Z,8.07
2023-04-03T04:17:36.277Z,8.18
2023-04-03T04:20:13.990Z,8.26
2023-04-03T04:22:47.566Z,8.35
2023-04-03T04:25:21.517Z,8.42
2023-04-03T04:27:55.740Z,8.51
2023-04-03T04:30:29.346Z,8.52
2023-04-03T04:33:03.302Z,8.56
2023-04-03T04:35:37.060Z,8.68
2023-04-03T04:38:10.792Z,8.81
2023-04-03T04:40:44.385Z,8.96
2023-04-03T04:43:18.554Z,9.05
2023-04-03T04:46:03.154Z,9.15
2023-04-03T04:48:38.347Z,9.26
2023-04-03T04:51:14.070Z,9.36
2023-04-03T04:53:48.337Z,9.46
2023-04-03T04:56:22.950Z,9.56
2023-04-03T04:58:56.805Z,9.57
2023-04-03T05:01:30.884Z,9.53
2023-04-03T05:04:06.182Z,9.48
2023-04-03T05:06:41.174Z,9.32
2023-04-03T05:09:24.717Z,9.17
2023-04-03T05:11:58.347Z,9.09
2023-04-03T05:14:33.454Z,9.06
2023-04-03T05:17:08.412Z,9.08
2023-04-03T05:19:43.358Z,9.22
2023-04-03T05:22:17.369Z,9.32
2023-04-03T05:24:50.698Z,9.42
2023-04-03T05:27:25.019Z,9.56
2023-04-03T05:30:00.847Z,9.62
2023-04-03T05:32:35.564Z,9.83
2023-04-03T05:35:20.495Z,10.17
2023-04-03T05:38:00.395Z,10.53
2023-04-03T05:40:34.021Z,10.72
2023-04-03T05:43:07.560Z,10.94
2023-04-03T05:45:42.942Z,11.13
2023-04-03T05:48:17.641Z,11.43
2023-04-03T05:50:51.708Z,11.78
2023-04-03T05:53:29.681Z,12.05
2023-04-03T05:56:04.714Z,12.25
2023-04-03T05:58:39.474Z,12.40
2023-04-03T06:01:12.809Z,12.46
2023-04-03T06:03:46.601Z,12.36
2023-04-03T06:06:20.021Z,12.33
2023-04-03T06:08:54.177Z,12.14
2023-04-03T06:11:27.901Z,11.85
2023-04-03T06:14:01.761Z,11.87
2023-04-03T06:16:35.784Z,12.00
2023-04-03T06:19:10.261Z,12.18
2023-04-03T06:21:45.082Z,12.37
2023-04-03T06:24:19.857Z,12.44
2023-04-03T06:26:53.421Z,12.51
2023-04-03T06:29:27.029Z,12.58
2023-04-03T06:32:00.681Z,12.52
2023-04-03T06:34:35.346Z,12.38
2023-04-03T06:37:08.393Z,12.39
2023-04-03T06:39:41.588Z,12.43
2023-04-03T06:42:15.136Z,12.32
2023-04-03T06:44:49.945Z,12.03
2023-04-03T06:47:23.037Z,11.89
2023-04-03T06:49:57.488Z,11.71
2023-04-03T06:52:30.924Z,11.70
2023-04-03T06:55:03.934Z,11.71
2023-04-03T06:57:37.333Z,11.73
2023-04-03T07:00:13.185Z,11.78
2023-04-03T07:02:46.622Z,11.82
2023-04-03T07:05:20.034Z,11.95
2023-04-03T07:07:53.194Z,12.15
2023-04-03T07:10:26.163Z,12.44
2023-04-03T07:13:01.498Z,12.77
2023-04-03T07:15:34.735Z,12.97
2023-04-03T07:18:07.845Z,13.09
2023-04-03T07:20:42.530Z,13.38
2023-04-03T07:23:15.794Z,13.74
2023-04-03T07:25:50.805Z,14.07
2023-04-03T07:28:25.412Z,14.34
2023-04-03T07:31:03.372Z,14.62
2023-04-03T07:33:37.176Z,14.84
2023-04-03T07:36:12.014Z,14.87
2023-04-03T07:38:46.002Z,15.07
2023-04-03T07:41:21.863Z,15.15
2023-04-03T07:43:55.958Z,15.13
2023-04-03T07:46:29.250Z,15.09
2023-04-03T07:49:02.277Z,15.08
2023-04-03T07:51:35.904Z,15.15
2023-04-03T07:54:09.201Z,15.25
2023-04-03T07:56:43.781Z,15.37
2023-04-03T07:59:16.792Z,15.50
2023-04-03T08:01:50.170Z,15.71
2023-04-03T08:04:23.470Z,16.10
2023-04-03T08:06:56.528Z,16.49
2023-04-03T08:09:29.569Z,16.88
2023-04-03T08:12:02.973Z,17.02
2023-04-03T08:14:36.360Z,17.07
2023-04-03T08:17:10.902Z,16.82
2023-04-03T08:19:44.088Z,16.88
2023-04-03T08:22:17.478Z,17.01
2023-04-03T08:24:58.418Z,17.17
2023-04-03T08:27:25.741Z,17.34
2023-04-03T08:29:58.823Z,17.73
2023-04-03T08:32:31.805Z,18.00
2023-04-03T08:35:04.997Z,18.04
2023-04-03T08:37:40.268Z,18.09
2023-04-03T08:40:18.094Z,18.11
2023-04-03T08:42:57.150Z,18.20
2023-04-03T08:45:34.805Z,18.43
2023-04-03T08:48:08.406Z,18.57
2023-04-03T08:50:44.285Z,18.65
2023-04-03T08:53:20.254Z,18.63
2023-04-03T08:55:55.383Z,18.58
2023-04-03T08:58:30.929Z,18.33
2023-04-03T09:01:06.796Z,18.00
2023-04-03T09:03:43.119Z,17.94
2023-04-03T09:06:19.328Z,17.99
2023-04-03T09:08:55.855Z,18.06
2023-04-03T09:11:32.185Z,17.94
2023-04-03T09:14:07.863Z,17.92
2023-04-03T09:16:43.996Z,18.00
2023-04-03T09:19:21.908Z,17.98
2023-04-03T09:21:53.711Z,17.91
2023-04-03T09:24:27.762Z,18.05
2023-04-03T09:27:04.037Z,17.88
2023-04-03T09:29:40.334Z,17.98
2023-04-03T09:32:23.453Z,18.03
2023-04-03T09:34:59.736Z,17.99
2023-04-03T09:37:45.376Z,18.11
2023-04-03T09:40:40.914Z,18.19
2023-04-03T09:43:28.560Z,18.33
2023-04-03T09:46:02.116Z,18.50
2023-04-03T09:48:35.102Z,18.55
2023-04-03T09:51:09.810Z,18.21
2023-04-03T09:53:45.484Z,18.12
2023-04-03T09:56:28.063Z,18.08
2023-04-03T09:59:18.027Z,18.12
2023-04-03T10:02:02.634Z,18.39
2023-04-03T10:04:43.357Z,18.76
2023-04-03T10:07:34.640Z,18.88
2023-04-03T10:10:21.192Z,18.99
2023-04-03T10:13:08.210Z,19.13
2023-04-03T10:15:47.564Z,19.59
2023-04-03T10:18:32.587Z,20.05
2023-04-03T10:21:17.552Z,20.30
2023-04-03T10:23:48.529Z,20.40
2023-04-03T10:26:25.726Z,20.26
2023-04-03T10:29:01.781Z,19.91
2023-04-03T10:31:38.353Z,19.34
2023-04-03T10:34:15.070Z,18.75
2023-04-03T10:36:51.319Z,18.28
2023-04-03T10:39:28.336Z,17.84
2023-04-03T10:42:16.726Z,17.35
2023-04-03T10:44:45.874Z,17.06
2023-04-03T10:47:22.203Z,16.92
2023-04-03T10:50:00.365Z,16.96
2023-04-03T10:52:39.918Z,17.09
2023-04-03T10:55:18.749Z,17.18
2023-04-03T10:57:53.454Z,17.13
2023-04-03T11:00:30.131Z,17.07
2023-04-03T11:03:07.024Z,17.18
2023-04-03T11:05:45.185Z,17.39
2023-04-03T11:08:24.667Z,17.72
2023-04-03T11:11:02.146Z,18.35
2023-04-03T11:13:38.583Z,19.33
2023-04-03T11:16:13.619Z,20.01
2023-04-03T11:18:49.679Z,20.83
2023-04-03T11:21:25.720Z,21.10
2023-04-03T11:24:01.591Z,20.92
2023-04-03T11:26:37.829Z,20.79
2023-04-03T11:29:18.118Z,20.60
2023-04-03T11:32:00.745Z,20.06
2023-04-03T11:34:40.157Z,19.53
2023-04-03T11:37:19.954Z,18.94
2023-04-03T11:39:57.830Z,18.35
2023-04-03T11:42:36.261Z,18.06
2023-04-03T11:45:38.432Z,17.87
2023-04-03T11:48:34.320Z,17.43
2023-04-03T11:51:28.936Z,16.87
2023-04-03T11:54:38.632Z,16.69
2023-04-03T11:57:46.318Z,16.55
2023-04-03T12:00:53.789Z,16.53
2023-04-03T12:04:14.810Z,16.41
2023-04-03T12:06:58.632Z,16.05
2023-04-03T12:12:44.053Z,15.65
2023-04-03T12:15:27.488Z,15.51
2023-04-03T12:18:00.786Z,15.51
2023-04-03T12:20:58.745Z,15.54
2023-04-03T12:23:34.771Z,15.46
2023-04-03T12:26:30.067Z,15.46
2023-04-03T12:29:04.069Z,15.60
2023-04-03T12:31:41.523Z,15.78
2023-04-03T12:34:23.008Z,15.95
2023-04-03T12:37:03.071Z,15.94
2023-04-03T12:39:48.749Z,15.67
2023-04-03T12:42:47.166Z,15.29
2023-04-03T12:45:23.222Z,14.99
2023-04-03T12:47:57.956Z,14.79
2023-04-03T12:50:34.991Z,14.66
2023-04-03T12:53:10.196Z,14.65
2023-04-03T12:55:43.477Z,14.65
2023-04-03T12:58:23.894Z,14.68
2023-04-03T13:01:08.458Z,14.62
2023-04-03T13:03:44.604Z,14.54
2023-04-03T13:06:21.450Z,14.56
2023-04-03T13:08:58.079Z,14.49
2023-04-03T13:11:34.747Z,14.52
2023-04-03T13:14:16.881Z,14.42
2023-04-03T13:16:59.383Z,14.32
2023-04-03T13:19:32.670Z,14.36
2023-04-03T13:22:08.644Z,14.32
2023-04-03T13:24:42.958Z,14.28
2023-04-03T13:27:16.963Z,14.26
2023-04-03T13:29:54.238Z,14.28
2023-04-03T13:32:30.037Z,14.32
2023-04-03T13:35:15.542Z,14.37
2023-04-03T13:37:40.783Z,14.41
2023-04-03T13:40:16.398Z,14.41
2023-04-03T13:42:51.223Z,14.25
2023-04-03T13:45:27.844Z,14.18
2023-04-03T13:48:24.070Z,14.18
2023-04-03T13:50:59.157Z,14.15
2023-04-03T13:53:34.868Z,14.18
2023-04-03T13:56:16.595Z,14.12
2023-04-03T13:59:03.591Z,13.96
2023-04-03T14:01:45.715Z,13.77
2023-04-03T14:04:22.885Z,13.64
2023-04-03T14:06:56.057Z,13.54
2023-04-03T14:09:32.549Z,13.51
2023-04-03T14:12:13.082Z,13.50
2023-04-03T14:14:46.763Z,13.55
2023-04-03T14:17:24.768Z,13.59
2023-04-03T14:20:00.267Z,13.58
2023-04-03T14:22:35.899Z,13.56
2023-04-03T14:25:10.804Z,13.68
2023-04-03T14:27:47.234Z,13.75
2023-04-03T14:30:23.664Z,13.82
2023-04-03T14:32:57.440Z,13.85
2023-04-03T14:35:31.807Z,13.82
2023-04-03T14:38:04.887Z,13.77
2023-04-03T14:40:38.199Z,13.78
2023-04-03T14:43:15.177Z,13.79
2023-04-03T14:45:49.082Z,13.76
2023-04-03T14:48:25.764Z,13.67
2023-04-03T14:51:05.723Z,13.59
2023-04-03T14:56:15.461Z,13.48
2023-04-03T14:58:51.247Z,13.47
2023-04-03T15:01:24.888Z,13.44
2023-04-03T15:03:58.439Z,13.36
2023-04-03T15:06:34.523Z,13.26
2023-04-03T15:09:08.214Z,13.18
2023-04-03T15:11:41.457Z,13.12
2023-04-03T15:14:19.613Z,13.00
2023-04-03T15:16:50.555Z,12.87
2023-04-03T15:24:35.502Z,12.63
2023-04-03T15:27:08.817Z,12.56
2023-04-03T15:29:43.760Z,12.43
2023-04-03T15:32:17.081Z,12.36
2023-04-03T15:34:50.955Z,12.35
2023-04-03T15:37:26.273Z,12.35
2023-04-03T15:39:59.187Z,12.34
2023-04-03T15:42:33.843Z,12.32
2023-04-03T15:45:08.408Z,12.32
2023-04-03T15:47:42.102Z,12.32
2023-04-03T15:50:15.366Z,12.27
2023-04-03T15:52:48.981Z,12.23
2023-04-03T15:55:22.086Z,12.19
2023-04-03T15:57:55.606Z,12.13
2023-04-03T16:00:29.567Z,12.08
2023-04-03T16:03:07.749Z,12.03
2023-04-03T16:05:42.098Z,11.96
2023-04-03T16:08:16.297Z,11.88
2023-04-03T16:10:49.645Z,11.80
2023-04-03T16:13:22.957Z,11.72
2023-04-03T16:15:57.189Z,11.73
2023-04-03T16:18:31.052Z,11.73
2023-04-03T16:21:04.674Z,11.70
2023-04-03T16:23:38.058Z,11.67
2023-04-03T16:26:11.154Z,11.64
2023-04-03T16:28:47.137Z,11.62
2023-04-03T16:31:20.402Z,11.52
2023-04-03T16:33:54.115Z,11.38
2023-04-03T16:36:27.809Z,11.28
2023-04-03T16:39:00.833Z,11.22
2023-04-03T16:41:33.906Z,11.24
2023-04-03T16:44:08.644Z,11.26
2023-04-03T16:46:41.883Z,11.27
2023-04-03T16:49:15.016Z,11.30
2023-04-03T16:51:48.382Z,11.29
2023-04-03T16:54:21.677Z,11.30
2023-04-03T16:56:54.929Z,11.29
2023-04-03T16:59:29.368Z,11.25
2023-04-03T17:02:02.505Z,11.17
2023-04-03T17:04:36.919Z,11.06
2023-04-03T17:07:09.886Z,10.92
2023-04-03T17:09:43.040Z,10.80
2023-04-03T17:12:16.035Z,10.73
2023-04-03T17:14:50.054Z,10.71
2023-04-03T17:17:26.268Z,10.68
2023-04-03T17:19:59.607Z,10.65
2023-04-03T17:22:33.958Z,10.60
2023-04-03T17:25:08.936Z,10.49
2023-04-03T17:27:43.845Z,10.41
2023-04-03T17:30:17.732Z,10.34
2023-04-03T17:32:50.970Z,10.29
2023-04-03T17:35:24.083Z,10.27
2023-04-03T17:38:16.443Z,10.23
2023-04-03T17:40:49.966Z,10.15
2023-04-03T17:43:23.015Z,10.09
2023-04-03T17:45:57.771Z,10.00
2023-04-03T17:48:31.536Z,9.97
2023-04-03T17:51:08.356Z,10.00
2023-04-03T17:53:41.458Z,10.02
2023-04-03T17:56:16.538Z,9.99
2023-04-03T17:58:50.540Z,10.00
2023-04-03T18:01:25.406Z,10.06
2023-04-03T18:04:01.177Z,10.08
2023-04-03T18:06:36.665Z,10.08
2023-04-03T18:09:14.699Z,10.07
2023-04-03T18:11:48.786Z,10.08
2023-04-03T18:14:23.955Z,10.05
2023-04-03T18:16:58.004Z,10.03
2023-04-03T18:19:31.306Z,10.02
2023-04-03T18:22:07.248Z,10.00
2023-04-03T18:24:41.021Z,10.01
2023-04-03T18:27:17.254Z,10.00
2023-04-03T18:29:54.110Z,9.99
2023-04-03T18:32:27.699Z,9.97
2023-04-03T18:35:02.349Z,9.97
2023-04-03T18:37:35.514Z,9.96
2023-04-03T18:40:11.144Z,9.88
2023-04-03T18:42:45.208Z,9.91
2023-04-03T18:45:21.102Z,9.95
2023-04-03T18:47:56.285Z,10.02
2023-04-03T18:50:30.334Z,10.05
2023-04-03T18:53:03.448Z,10.04
2023-04-03T18:55:41.985Z,10.05
2023-04-03T18:58:15.289Z,9.82
2023-04-03T19:00:48.735Z,10.06
2023-04-03T19:03:22.012Z,10.02
2023-04-03T19:05:56.195Z,9.97
2023-04-03T19:08:32.136Z,9.92
2023-04-03T19:11:07.267Z,9.91
2023-04-03T19:13:46.799Z,9.95
2023-04-03T19:16:19.213Z,9.94
2023-04-03T19:18:52.471Z,9.89
2023-04-03T19:21:25.975Z,9.83
2023-04-03T19:23:59.851Z,9.78
2023-04-03T19:26:34.238Z,9.74
2023-04-03T19:29:07.617Z,9.70
2023-04-03T19:31:41.546Z,9.69
2023-04-03T19:34:15.119Z,9.66
2023-04-03T19:36:49.521Z,9.62
2023-04-03T19:39:22.947Z,9.65
2023-04-03T19:41:56.471Z,9.68
2023-04-03T19:44:31.824Z,9.69
2023-04-03T19:47:06.188Z,9.74
2023-04-03T19:49:39.544Z,9.71
2023-04-03T19:52:13.164Z,9.68
2023-04-03T19:54:46.504Z,9.65
2023-04-03T19:57:19.980Z,9.65
2023-04-03T19:59:53.162Z,9.58
2023-04-03T20:02:27.859Z,9.56
2023-04-03T20:05:01.072Z,9.52
2023-04-03T20:07:34.679Z,9.49
2023-04-03T20:10:09.326Z,9.49
2023-04-03T20:12:42.885Z,9.46
2023-04-03T20:15:16.763Z,9.40
2023-04-03T20:17:50.536Z,9.32
2023-04-03T20:20:23.827Z,9.24
2023-04-03T20:22:58.808Z,9.11
2023-04-03T20:28:07.265Z,8.99
2023-04-03T20:30:42.861Z,8.96
2023-04-03T20:33:16.224Z,8.89
2023-04-03T20:35:49.512Z,8.84
2023-04-03T20:38:22.811Z,8.81
2023-04-03T20:40:56.108Z,8.81
2023-04-03T20:43:30.009Z,8.85
2023-04-03T20:46:04.460Z,8.90
2023-04-03T20:48:38.030Z,8.86
2023-04-03T20:51:16.010Z,8.85
2023-04-03T20:53:49.674Z,8.86
2023-04-03T20:56:23.616Z,8.86
2023-04-03T20:58:58.509Z,8.86
2023-04-03T21:01:33.506Z,8.84
2023-04-03T21:04:10.637Z,8.84
2023-04-03T21:07:18.939Z,8.84
2023-04-03T21:10:28.422Z,8.84
2023-04-03T21:13:36.397Z,8.79
2023-04-03T21:16:07.217Z,8.74
2023-04-03T21:19:08.744Z,8.73
2023-04-03T21:21:44.324Z,8.79
2023-04-03T21:24:19.162Z,8.83
2023-04-03T21:26:52.390Z,8.83
2023-04-03T21:29:25.692Z,8.81
2023-04-03T21:32:00.167Z,8.83
2023-04-03T21:34:33.931Z,8.79
2023-04-03T21:37:11.970Z,8.78
2023-04-03T21:39:46.092Z,8.73
2023-04-03T21:42:19.272Z,8.73
2023-04-03T21:44:52.793Z,8.74
2023-04-03T21:47:26.911Z,8.71
2023-04-03T21:50:00.184Z,8.68
2023-04-03T21:52:33.731Z,8.68
2023-04-03T21:55:08.650Z,8.67
2023-04-03T21:57:42.427Z,8.62
2023-04-03T22:00:17.502Z,8.56
2023-04-03T22:02:55.214Z,8.51
2023-04-03T22:05:26.280Z,8.47
2023-04-03T22:07:59.814Z,8.39
2023-04-03T22:10:33.042Z,8.30
2023-04-03T22:13:06.355Z,8.27
2023-04-03T22:15:41.755Z,8.25
2023-04-03T22:18:15.096Z,8.24
2023-04-03T22:20:48.252Z,8.26
2023-04-03T22:23:21.406Z,8.29
2023-04-03T22:26:05.749Z,8.30
2023-04-03T22:28:41.314Z,8.29
2023-04-03T22:31:15.016Z,8.24
2023-04-03T22:33:48.157Z,8.21
2023-04-03T22:36:21.712Z,8.18
2023-04-03T22:38:55.092Z,8.15
2023-04-03T22:41:28.604Z,8.13
2023-04-03T22:44:02.023Z,8.15
2023-04-03T22:46:35.470Z,8.14
2023-04-03T22:49:08.796Z,8.13
2023-04-03T22:51:42.117Z,8.12
2023-04-03T22:54:15.623Z,8.10
2023-04-03T22:56:48.840Z,8.09
2023-04-03T22:59:22.054Z,8.04
2023-04-03T23:01:55.687Z,8.02
2023-04-03T23:04:29.730Z,7.99
2023-04-03T23:07:03.142Z,7.96
2023-04-03T23:09:36.594Z,7.93
2023-04-03T23:12:10.597Z,7.87
2023-04-03T23:14:43.742Z,7.84
2023-04-03T23:17:17.197Z,7.80
2023-04-03T23:19:50.406Z,7.75
2023-04-03T23:22:23.618Z,7.72
2023-04-03T23:24:56.784Z,7.70
2023-04-03T23:27:30.007Z,7.66
2023-04-03T23:30:03.317Z,7.51
2023-04-03T23:32:36.686Z,7.61
2023-04-03T23:35:11.907Z,7.60
2023-04-03T23:37:45.120Z,7.58
2023-04-03T23:40:18.995Z,7.59
2023-04-03T23:42:52.367Z,7.60
2023-04-03T23:45:25.824Z,7.64
2023-04-03T23:47:59.322Z,7.67
2023-04-03T23:50:32.721Z,7.70
2023-04-03T23:53:05.828Z,7.71
2023-04-03T23:55:39.104Z,7.76
2023-04-03T23:58:12.560Z,7.82
